sensor_id;sensor_type;location;lat;lon;timestamp;P1;durP1;ratioP1;P2;durP2;ratioP2
60851;SDS011;48553;50.766;2.900;2023-08-06T00:01:24;4.75;;;1.13;;
60851;SDS011;48553;50.766;2.900;2023-08-06T00:04:25;5.93;;;1.27;;
60851;SDS011;48553;50.766;2.900;2023-08-06T00:07:25;5.28;;;1.00;;
60851;SDS011;48553;50.766;2.900;2023-08-06T00:10:26;7.13;;;1.27;;
60851;SDS011;48553;50.766;2.900;2023-08-06T00:13:26;5.57;;;1.15;;
60851;SDS011;48553;50.766;2.900;2023-08-06T00:16:27;8.85;;;1.20;;
60851;SDS011;48553;50.766;2.900;2023-08-06T00:19:27;6.15;;;1.08;;
60851;SDS011;48553;50.766;2.900;2023-08-06T00:22:28;7.20;;;1.20;;
60851;SDS011;48553;50.766;2.900;2023-08-06T00:25:28;8.90;;;1.20;;
60851;SDS011;48553;50.766;2.900;2023-08-06T00:28:28;6.50;;;1.15;;
60851;SDS011;48553;50.766;2.900;2023-08-06T00:31:29;6.43;;;1.00;;
60851;SDS011;48553;50.766;2.900;2023-08-06T00:34:29;8.25;;;1.05;;
60851;SDS011;48553;50.766;2.900;2023-08-06T00:37:30;5.65;;;1.40;;
60851;SDS011;48553;50.766;2.900;2023-08-06T00:40:30;7.53;;;1.33;;
60851;SDS011;48553;50.766;2.900;2023-08-06T00:43:30;3.13;;;1.20;;
60851;SDS011;48553;50.766;2.900;2023-08-06T00:46:31;8.00;;;1.55;;
60851;SDS011;48553;50.766;2.900;2023-08-06T00:49:34;5.78;;;1.70;;
60851;SDS011;48553;50.766;2.900;2023-08-06T00:52:36;6.53;;;1.90;;
60851;SDS011;48553;50.766;2.900;2023-08-06T00:55:37;8.48;;;1.77;;
60851;SDS011;48553;50.766;2.900;2023-08-06T00:58:38;8.25;;;1.98;;
60851;SDS011;48553;50.766;2.900;2023-08-06T01:01:39;8.02;;;2.35;;
60851;SDS011;48553;50.766;2.900;2023-08-06T01:04:39;8.15;;;1.88;;
60851;SDS011;48553;50.766;2.900;2023-08-06T01:07:48;7.85;;;1.60;;
60851;SDS011;48553;50.766;2.900;2023-08-06T01:17:50;5.93;;;1.80;;
60851;SDS011;48553;50.766;2.900;2023-08-06T01:20:51;6.90;;;2.00;;
60851;SDS011;48553;50.766;2.900;2023-08-06T01:23:51;9.98;;;2.47;;
60851;SDS011;48553;50.766;2.900;2023-08-06T01:26:56;8.27;;;2.60;;
60851;SDS011;48553;50.766;2.900;2023-08-06T01:30:08;13.52;;;2.85;;
60851;SDS011;48553;50.766;2.900;2023-08-06T01:33:19;9.70;;;2.67;;
60851;SDS011;48553;50.766;2.900;2023-08-06T01:36:21;10.00;;;2.40;;
60851;SDS011;48553;50.766;2.900;2023-08-06T01:39:22;6.63;;;2.40;;
60851;SDS011;48553;50.766;2.900;2023-08-06T01:42:23;8.77;;;2.60;;
60851;SDS011;48553;50.766;2.900;2023-08-06T01:45:23;8.82;;;2.50;;
60851;SDS011;48553;50.766;2.900;2023-08-06T01:48:24;7.15;;;2.30;;
60851;SDS011;48553;50.766;2.900;2023-08-06T01:51:24;10.07;;;2.78;;
60851;SDS011;48553;50.766;2.900;2023-08-06T01:54:25;7.35;;;2.20;;
60851;SDS011;48553;50.766;2.900;2023-08-06T01:57:25;9.23;;;2.88;;
60851;SDS011;48553;50.766;2.900;2023-08-06T02:00:25;10.02;;;2.63;;
60851;SDS011;48553;50.766;2.900;2023-08-06T02:03:27;6.95;;;2.70;;
60851;SDS011;48553;50.766;2.900;2023-08-06T02:06:28;10.98;;;2.70;;
60851;SDS011;48553;50.766;2.900;2023-08-06T02:09:28;6.90;;;2.58;;
60851;SDS011;48553;50.766;2.900;2023-08-06T02:12:29;14.10;;;2.72;;
60851;SDS011;48553;50.766;2.900;2023-08-06T02:15:29;9.55;;;2.30;;
60851;SDS011;48553;50.766;2.900;2023-08-06T02:18:29;11.07;;;2.63;;
60851;SDS011;48553;50.766;2.900;2023-08-06T02:21:30;8.43;;;2.55;;
60851;SDS011;48553;50.766;2.900;2023-08-06T02:24:30;8.88;;;2.15;;
60851;SDS011;48553;50.766;2.900;2023-08-06T02:27:30;10.88;;;2.17;;
60851;SDS011;48553;50.766;2.900;2023-08-06T02:30:31;9.32;;;2.10;;
60851;SDS011;48553;50.766;2.900;2023-08-06T02:33:31;8.68;;;2.42;;
60851;SDS011;48553;50.766;2.900;2023-08-06T02:36:32;6.20;;;2.33;;
60851;SDS011;48553;50.766;2.900;2023-08-06T02:39:32;9.68;;;2.72;;
60851;SDS011;48553;50.766;2.900;2023-08-06T02:42:33;8.30;;;2.80;;
60851;SDS011;48553;50.766;2.900;2023-08-06T02:45:34;10.05;;;2.92;;
60851;SDS011;48553;50.766;2.900;2023-08-06T02:48:34;8.27;;;2.85;;
60851;SDS011;48553;50.766;2.900;2023-08-06T02:51:35;14.25;;;3.38;;
60851;SDS011;48553;50.766;2.900;2023-08-06T02:54:35;11.60;;;3.40;;
60851;SDS011;48553;50.766;2.900;2023-08-06T02:57:35;11.38;;;3.50;;
60851;SDS011;48553;50.766;2.900;2023-08-06T03:00:36;11.77;;;3.50;;
60851;SDS011;48553;50.766;2.900;2023-08-06T03:03:36;16.30;;;3.65;;
60851;SDS011;48553;50.766;2.900;2023-08-06T03:06:36;10.07;;;3.15;;
60851;SDS011;48553;50.766;2.900;2023-08-06T03:09:37;9.88;;;3.05;;
60851;SDS011;48553;50.766;2.900;2023-08-06T03:12:37;15.95;;;3.55;;
60851;SDS011;48553;50.766;2.900;2023-08-06T03:15:38;11.32;;;3.38;;
60851;SDS011;48553;50.766;2.900;2023-08-06T03:18:38;10.60;;;3.35;;
60851;SDS011;48553;50.766;2.900;2023-08-06T03:21:38;10.80;;;3.22;;
60851;SDS011;48553;50.766;2.900;2023-08-06T03:24:39;10.85;;;3.10;;
60851;SDS011;48553;50.766;2.900;2023-08-06T03:27:40;10.65;;;3.10;;
60851;SDS011;48553;50.766;2.900;2023-08-06T03:30:40;9.35;;;3.17;;
60851;SDS011;48553;50.766;2.900;2023-08-06T03:33:40;9.75;;;3.22;;
60851;SDS011;48553;50.766;2.900;2023-08-06T03:36:41;7.43;;;3.10;;
60851;SDS011;48553;50.766;2.900;2023-08-06T03:39:41;11.07;;;2.70;;
60851;SDS011;48553;50.766;2.900;2023-08-06T03:42:42;7.25;;;2.80;;
60851;SDS011;48553;50.766;2.900;2023-08-06T03:45:42;10.48;;;2.95;;
60851;SDS011;48553;50.766;2.900;2023-08-06T03:48:42;11.35;;;2.92;;
60851;SDS011;48553;50.766;2.900;2023-08-06T03:51:43;11.88;;;2.65;;
60851;SDS011;48553;50.766;2.900;2023-08-06T03:54:43;8.35;;;2.53;;
60851;SDS011;48553;50.766;2.900;2023-08-06T03:57:44;9.82;;;2.63;;
60851;SDS011;48553;50.766;2.900;2023-08-06T04:00:44;11.85;;;2.63;;
60851;SDS011;48553;50.766;2.900;2023-08-06T04:03:45;10.93;;;3.20;;
60851;SDS011;48553;50.766;2.900;2023-08-06T04:06:45;9.15;;;2.65;;
60851;SDS011;48553;50.766;2.900;2023-08-06T04:09:56;8.60;;;2.50;;
60851;SDS011;48553;50.766;2.900;2023-08-06T04:12:59;9.13;;;2.60;;
60851;SDS011;48553;50.766;2.900;2023-08-06T04:16:02;9.68;;;2.92;;
60851;SDS011;48553;50.766;2.900;2023-08-06T04:19:03;8.90;;;2.85;;
60851;SDS011;48553;50.766;2.900;2023-08-06T04:22:03;9.77;;;2.50;;
60851;SDS011;48553;50.766;2.900;2023-08-06T04:25:04;11.05;;;2.30;;
60851;SDS011;48553;50.766;2.900;2023-08-06T04:28:05;9.45;;;2.40;;
60851;SDS011;48553;50.766;2.900;2023-08-06T04:31:05;9.95;;;2.45;;
60851;SDS011;48553;50.766;2.900;2023-08-06T04:34:06;10.82;;;2.35;;
60851;SDS011;48553;50.766;2.900;2023-08-06T04:37:07;6.03;;;2.38;;
60851;SDS011;48553;50.766;2.900;2023-08-06T04:40:08;9.77;;;2.30;;
60851;SDS011;48553;50.766;2.900;2023-08-06T04:43:09;11.80;;;2.45;;
60851;SDS011;48553;50.766;2.900;2023-08-06T04:46:09;8.43;;;2.25;;
60851;SDS011;48553;50.766;2.900;2023-08-06T04:49:09;10.65;;;2.60;;
60851;SDS011;48553;50.766;2.900;2023-08-06T04:52:10;10.43;;;2.22;;
60851;SDS011;48553;50.766;2.900;2023-08-06T04:55:10;9.32;;;2.50;;
60851;SDS011;48553;50.766;2.900;2023-08-06T04:58:12;8.15;;;2.00;;
60851;SDS011;48553;50.766;2.900;2023-08-06T05:01:13;8.52;;;2.00;;
60851;SDS011;48553;50.766;2.900;2023-08-06T05:04:13;10.30;;;1.70;;
60851;SDS011;48553;50.766;2.900;2023-08-06T05:07:13;8.38;;;1.70;;
60851;SDS011;48553;50.766;2.900;2023-08-06T05:10:14;8.20;;;1.88;;
60851;SDS011;48553;50.766;2.900;2023-08-06T05:13:15;10.07;;;2.00;;
60851;SDS011;48553;50.766;2.900;2023-08-06T05:16:15;8.73;;;1.83;;
60851;SDS011;48553;50.766;2.900;2023-08-06T05:19:15;6.25;;;1.55;;
60851;SDS011;48553;50.766;2.900;2023-08-06T05:22:16;5.32;;;1.80;;
60851;SDS011;48553;50.766;2.900;2023-08-06T05:25:16;6.00;;;1.58;;
60851;SDS011;48553;50.766;2.900;2023-08-06T05:28:17;8.35;;;1.92;;
60851;SDS011;48553;50.766;2.900;2023-08-06T05:31:17;7.32;;;1.90;;
60851;SDS011;48553;50.766;2.900;2023-08-06T05:34:18;8.07;;;1.92;;
60851;SDS011;48553;50.766;2.900;2023-08-06T05:37:18;9.27;;;1.83;;
60851;SDS011;48553;50.766;2.900;2023-08-06T05:40:18;6.15;;;1.60;;
60851;SDS011;48553;50.766;2.900;2023-08-06T05:43:19;6.72;;;1.58;;
60851;SDS011;48553;50.766;2.900;2023-08-06T05:46:19;7.97;;;1.65;;
60851;SDS011;48553;50.766;2.900;2023-08-06T05:49:20;11.95;;;2.30;;
60851;SDS011;48553;50.766;2.900;2023-08-06T05:52:20;8.13;;;2.10;;
60851;SDS011;48553;50.766;2.900;2023-08-06T05:55:20;8.43;;;2.05;;
60851;SDS011;48553;50.766;2.900;2023-08-06T05:58:21;9.48;;;2.20;;
60851;SDS011;48553;50.766;2.900;2023-08-06T06:01:21;6.97;;;2.33;;
60851;SDS011;48553;50.766;2.900;2023-08-06T06:04:22;13.35;;;2.45;;
60851;SDS011;48553;50.766;2.900;2023-08-06T06:07:22;11.27;;;2.70;;
60851;SDS011;48553;50.766;2.900;2023-08-06T06:10:23;11.00;;;2.35;;
60851;SDS011;48553;50.766;2.900;2023-08-06T06:13:23;9.10;;;2.63;;
60851;SDS011;48553;50.766;2.900;2023-08-06T06:16:23;7.47;;;2.25;;
60851;SDS011;48553;50.766;2.900;2023-08-06T06:19:24;12.18;;;2.33;;
60851;SDS011;48553;50.766;2.900;2023-08-06T06:22:24;11.88;;;2.65;;
60851;SDS011;48553;50.766;2.900;2023-08-06T06:25:25;7.13;;;2.25;;
60851;SDS011;48553;50.766;2.900;2023-08-06T06:28:25;8.73;;;2.60;;
60851;SDS011;48553;50.766;2.900;2023-08-06T06:31:26;6.35;;;2.10;;
60851;SDS011;48553;50.766;2.900;2023-08-06T06:34:26;8.05;;;2.42;;
60851;SDS011;48553;50.766;2.900;2023-08-06T06:37:26;7.15;;;2.17;;
60851;SDS011;48553;50.766;2.900;2023-08-06T06:40:27;9.50;;;2.30;;
60851;SDS011;48553;50.766;2.900;2023-08-06T06:43:27;9.35;;;2.50;;
60851;SDS011;48553;50.766;2.900;2023-08-06T06:46:28;9.98;;;2.35;;
60851;SDS011;48553;50.766;2.900;2023-08-06T06:49:28;7.40;;;1.98;;
60851;SDS011;48553;50.766;2.900;2023-08-06T06:52:29;11.70;;;2.50;;
60851;SDS011;48553;50.766;2.900;2023-08-06T06:55:29;7.80;;;2.08;;
60851;SDS011;48553;50.766;2.900;2023-08-06T06:58:33;10.40;;;2.20;;
60851;SDS011;48553;50.766;2.900;2023-08-06T07:01:33;6.40;;;2.00;;
60851;SDS011;48553;50.766;2.900;2023-08-06T07:04:34;9.25;;;2.15;;
60851;SDS011;48553;50.766;2.900;2023-08-06T07:07:35;7.85;;;1.80;;
60851;SDS011;48553;50.766;2.900;2023-08-06T07:10:37;8.20;;;2.20;;
60851;SDS011;48553;50.766;2.900;2023-08-06T07:13:38;5.82;;;2.30;;
60851;SDS011;48553;50.766;2.900;2023-08-06T07:16:38;6.22;;;1.65;;
60851;SDS011;48553;50.766;2.900;2023-08-06T07:19:38;7.25;;;2.00;;
60851;SDS011;48553;50.766;2.900;2023-08-06T07:22:39;4.72;;;1.90;;
60851;SDS011;48553;50.766;2.900;2023-08-06T07:25:40;9.45;;;2.15;;
60851;SDS011;48553;50.766;2.900;2023-08-06T07:28:40;6.93;;;1.80;;
60851;SDS011;48553;50.766;2.900;2023-08-06T07:31:40;5.15;;;1.85;;
60851;SDS011;48553;50.766;2.900;2023-08-06T07:34:41;8.65;;;1.75;;
60851;SDS011;48553;50.766;2.900;2023-08-06T07:37:41;9.63;;;2.13;;
60851;SDS011;48553;50.766;2.900;2023-08-06T07:40:42;9.57;;;2.35;;
60851;SDS011;48553;50.766;2.900;2023-08-06T07:43:42;8.25;;;2.15;;
60851;SDS011;48553;50.766;2.900;2023-08-06T07:46:43;8.98;;;2.30;;
60851;SDS011;48553;50.766;2.900;2023-08-06T07:49:43;7.65;;;2.10;;
60851;SDS011;48553;50.766;2.900;2023-08-06T07:52:43;7.95;;;1.77;;
60851;SDS011;48553;50.766;2.900;2023-08-06T07:55:47;6.47;;;2.00;;
60851;SDS011;48553;50.766;2.900;2023-08-06T07:58:51;7.07;;;1.90;;
60851;SDS011;48553;50.766;2.900;2023-08-06T08:01:51;13.25;;;1.95;;
60851;SDS011;48553;50.766;2.900;2023-08-06T08:04:52;7.25;;;1.58;;
60851;SDS011;48553;50.766;2.900;2023-08-06T08:07:52;7.50;;;1.75;;
60851;SDS011;48553;50.766;2.900;2023-08-06T08:10:53;5.53;;;1.85;;
60851;SDS011;48553;50.766;2.900;2023-08-06T08:13:55;6.60;;;1.60;;
60851;SDS011;48553;50.766;2.900;2023-08-06T08:16:55;4.18;;;1.58;;
60851;SDS011;48553;50.766;2.900;2023-08-06T08:19:55;7.82;;;1.55;;
60851;SDS011;48553;50.766;2.900;2023-08-06T08:22:56;5.30;;;1.70;;
60851;SDS011;48553;50.766;2.900;2023-08-06T08:25:57;5.22;;;1.70;;
60851;SDS011;48553;50.766;2.900;2023-08-06T08:28:57;6.75;;;1.67;;
60851;SDS011;48553;50.766;2.900;2023-08-06T08:31:58;8.70;;;1.90;;
60851;SDS011;48553;50.766;2.900;2023-08-06T08:34:58;9.43;;;2.05;;
60851;SDS011;48553;50.766;2.900;2023-08-06T08:37:58;9.35;;;1.80;;
60851;SDS011;48553;50.766;2.900;2023-08-06T08:40:59;3.78;;;1.50;;
60851;SDS011;48553;50.766;2.900;2023-08-06T08:43:59;6.47;;;1.70;;
60851;SDS011;48553;50.766;2.900;2023-08-06T08:47:02;8.38;;;1.90;;
60851;SDS011;48553;50.766;2.900;2023-08-06T08:50:03;7.07;;;1.75;;
60851;SDS011;48553;50.766;2.900;2023-08-06T08:53:06;6.95;;;1.90;;
60851;SDS011;48553;50.766;2.900;2023-08-06T08:56:08;7.30;;;1.92;;
60851;SDS011;48553;50.766;2.900;2023-08-06T08:59:12;6.97;;;2.00;;
60851;SDS011;48553;50.766;2.900;2023-08-06T09:02:13;12.20;;;2.05;;
60851;SDS011;48553;50.766;2.900;2023-08-06T09:05:15;6.80;;;2.10;;
60851;SDS011;48553;50.766;2.900;2023-08-06T09:08:18;7.50;;;2.20;;
60851;SDS011;48553;50.766;2.900;2023-08-06T09:11:24;8.75;;;1.98;;
60851;SDS011;48553;50.766;2.900;2023-08-06T09:14:26;6.82;;;1.52;;
60851;SDS011;48553;50.766;2.900;2023-08-06T09:17:26;6.05;;;1.83;;
60851;SDS011;48553;50.766;2.900;2023-08-06T09:20:28;11.52;;;2.03;;
60851;SDS011;48553;50.766;2.900;2023-08-06T09:23:29;8.18;;;2.00;;
60851;SDS011;48553;50.766;2.900;2023-08-06T09:26:33;6.45;;;1.77;;
60851;SDS011;48553;50.766;2.900;2023-08-06T09:29:34;6.80;;;1.80;;
60851;SDS011;48553;50.766;2.900;2023-08-06T09:32:47;5.80;;;1.90;;
60851;SDS011;48553;50.766;2.900;2023-08-06T09:35:51;7.15;;;1.73;;
60851;SDS011;48553;50.766;2.900;2023-08-06T09:38:51;9.35;;;2.08;;
60851;SDS011;48553;50.766;2.900;2023-08-06T09:41:55;6.22;;;1.98;;
60851;SDS011;48553;50.766;2.900;2023-08-06T09:45:05;7.22;;;2.10;;
60851;SDS011;48553;50.766;2.900;2023-08-06T09:48:07;7.75;;;2.10;;
60851;SDS011;48553;50.766;2.900;2023-08-06T09:51:08;7.47;;;2.10;;
60851;SDS011;48553;50.766;2.900;2023-08-06T09:54:11;7.43;;;2.00;;
60851;SDS011;48553;50.766;2.900;2023-08-06T09:57:12;8.68;;;1.90;;
60851;SDS011;48553;50.766;2.900;2023-08-06T10:00:14;7.32;;;1.70;;
60851;SDS011;48553;50.766;2.900;2023-08-06T10:03:16;7.15;;;2.28;;
60851;SDS011;48553;50.766;2.900;2023-08-06T10:06:18;5.35;;;1.77;;
60851;SDS011;48553;50.766;2.900;2023-08-06T10:09:20;6.50;;;1.90;;
60851;SDS011;48553;50.766;2.900;2023-08-06T10:12:20;9.00;;;2.13;;
60851;SDS011;48553;50.766;2.900;2023-08-06T10:15:24;4.80;;;2.00;;
60851;SDS011;48553;50.766;2.900;2023-08-06T10:18:26;8.68;;;1.98;;
60851;SDS011;48553;50.766;2.900;2023-08-06T10:21:27;5.90;;;1.73;;
60851;SDS011;48553;50.766;2.900;2023-08-06T10:24:44;4.57;;;1.70;;
60851;SDS011;48553;50.766;2.900;2023-08-06T10:30:52;7.35;;;2.10;;
60851;SDS011;48553;50.766;2.900;2023-08-06T10:33:52;5.93;;;1.80;;
60851;SDS011;48553;50.766;2.900;2023-08-06T10:36:54;6.10;;;1.92;;
60851;SDS011;48553;50.766;2.900;2023-08-06T10:39:55;7.05;;;2.13;;
60851;SDS011;48553;50.766;2.900;2023-08-06T10:42:55;6.53;;;2.05;;
60851;SDS011;48553;50.766;2.900;2023-08-06T10:45:58;6.95;;;1.95;;
60851;SDS011;48553;50.766;2.900;2023-08-06T10:49:00;6.20;;;1.90;;
60851;SDS011;48553;50.766;2.900;2023-08-06T10:52:01;4.07;;;1.33;;
60851;SDS011;48553;50.766;2.900;2023-08-06T10:55:01;6.00;;;1.80;;
60851;SDS011;48553;50.766;2.900;2023-08-06T10:58:02;6.47;;;1.95;;
60851;SDS011;48553;50.766;2.900;2023-08-06T11:01:02;5.43;;;1.70;;
60851;SDS011;48553;50.766;2.900;2023-08-06T11:04:03;6.82;;;1.70;;
60851;SDS011;48553;50.766;2.900;2023-08-06T11:07:06;4.88;;;2.00;;
60851;SDS011;48553;50.766;2.900;2023-08-06T11:10:07;8.05;;;1.90;;
60851;SDS011;48553;50.766;2.900;2023-08-06T11:13:09;4.70;;;1.83;;
60851;SDS011;48553;50.766;2.900;2023-08-06T11:16:09;8.02;;;2.05;;
60851;SDS011;48553;50.766;2.900;2023-08-06T11:19:10;5.72;;;2.00;;
60851;SDS011;48553;50.766;2.900;2023-08-06T11:22:10;5.13;;;2.00;;
60851;SDS011;48553;50.766;2.900;2023-08-06T11:25:11;7.07;;;1.90;;
60851;SDS011;48553;50.766;2.900;2023-08-06T11:28:12;7.38;;;2.15;;
60851;SDS011;48553;50.766;2.900;2023-08-06T11:31:22;4.47;;;1.67;;
60851;SDS011;48553;50.766;2.900;2023-08-06T11:34:23;5.40;;;2.08;;
60851;SDS011;48553;50.766;2.900;2023-08-06T11:37:24;6.38;;;1.80;;
60851;SDS011;48553;50.766;2.900;2023-08-06T11:40:25;7.50;;;1.95;;
60851;SDS011;48553;50.766;2.900;2023-08-06T11:43:25;5.47;;;1.80;;
60851;SDS011;48553;50.766;2.900;2023-08-06T11:46:26;6.35;;;1.50;;
60851;SDS011;48553;50.766;2.900;2023-08-06T11:49:42;7.28;;;2.15;;
60851;SDS011;48553;50.766;2.900;2023-08-06T11:52:47;4.80;;;1.45;;
60851;SDS011;48553;50.766;2.900;2023-08-06T11:55:47;6.43;;;1.58;;
60851;SDS011;48553;50.766;2.900;2023-08-06T11:58:48;5.18;;;1.60;;
60851;SDS011;48553;50.766;2.900;2023-08-06T12:01:48;5.18;;;1.77;;
60851;SDS011;48553;50.766;2.900;2023-08-06T12:05:02;4.90;;;1.83;;
60851;SDS011;48553;50.766;2.900;2023-08-06T12:08:06;6.05;;;1.55;;
60851;SDS011;48553;50.766;2.900;2023-08-06T12:11:09;7.13;;;2.00;;
60851;SDS011;48553;50.766;2.900;2023-08-06T12:14:09;7.88;;;1.83;;
60851;SDS011;48553;50.766;2.900;2023-08-06T12:17:10;5.05;;;1.90;;
60851;SDS011;48553;50.766;2.900;2023-08-06T12:20:10;6.72;;;2.75;;
60851;SDS011;48553;50.766;2.900;2023-08-06T12:23:10;5.53;;;1.90;;
60851;SDS011;48553;50.766;2.900;2023-08-06T12:26:15;5.72;;;1.83;;
60851;SDS011;48553;50.766;2.900;2023-08-06T12:29:15;3.70;;;1.60;;
60851;SDS011;48553;50.766;2.900;2023-08-06T12:32:15;11.52;;;5.53;;
60851;SDS011;48553;50.766;2.900;2023-08-06T12:35:16;6.20;;;1.70;;
60851;SDS011;48553;50.766;2.900;2023-08-06T12:38:16;4.47;;;1.77;;
60851;SDS011;48553;50.766;2.900;2023-08-06T12:41:17;3.47;;;1.38;;
60851;SDS011;48553;50.766;2.900;2023-08-06T12:44:17;7.22;;;1.88;;
60851;SDS011;48553;50.766;2.900;2023-08-06T12:47:18;5.78;;;1.58;;
60851;SDS011;48553;50.766;2.900;2023-08-06T12:50:18;5.45;;;1.67;;
60851;SDS011;48553;50.766;2.900;2023-08-06T12:53:19;4.25;;;1.63;;
60851;SDS011;48553;50.766;2.900;2023-08-06T12:56:22;6.72;;;1.65;;
60851;SDS011;48553;50.766;2.900;2023-08-06T12:59:22;6.85;;;1.50;;
60851;SDS011;48553;50.766;2.900;2023-08-06T13:02:22;5.70;;;1.23;;
60851;SDS011;48553;50.766;2.900;2023-08-06T13:05:23;3.63;;;1.20;;
60851;SDS011;48553;50.766;2.900;2023-08-06T13:08:24;2.63;;;1.30;;
60851;SDS011;48553;50.766;2.900;2023-08-06T13:11:24;3.67;;;1.50;;
60851;SDS011;48553;50.766;2.900;2023-08-06T13:14:24;3.72;;;1.35;;
60851;SDS011;48553;50.766;2.900;2023-08-06T13:17:25;3.33;;;1.20;;
60851;SDS011;48553;50.766;2.900;2023-08-06T13:20:27;4.70;;;1.40;;
60851;SDS011;48553;50.766;2.900;2023-08-06T13:23:30;3.75;;;1.40;;
60851;SDS011;48553;50.766;2.900;2023-08-06T13:26:30;4.97;;;1.67;;
60851;SDS011;48553;50.766;2.900;2023-08-06T13:29:30;4.60;;;1.40;;
60851;SDS011;48553;50.766;2.900;2023-08-06T13:32:31;5.10;;;1.60;;
60851;SDS011;48553;50.766;2.900;2023-08-06T13:35:32;3.08;;;1.45;;
60851;SDS011;48553;50.766;2.900;2023-08-06T13:38:32;8.32;;;1.55;;
60851;SDS011;48553;50.766;2.900;2023-08-06T13:41:33;5.35;;;1.65;;
60851;SDS011;48553;50.766;2.900;2023-08-06T13:44:33;5.00;;;1.40;;
60851;SDS011;48553;50.766;2.900;2023-08-06T13:47:35;5.50;;;1.52;;
60851;SDS011;48553;50.766;2.900;2023-08-06T13:50:36;4.65;;;1.50;;
60851;SDS011;48553;50.766;2.900;2023-08-06T13:53:37;5.45;;;1.77;;
60851;SDS011;48553;50.766;2.900;2023-08-06T13:56:38;5.18;;;1.38;;
60851;SDS011;48553;50.766;2.900;2023-08-06T13:59:39;3.30;;;1.42;;
60851;SDS011;48553;50.766;2.900;2023-08-06T14:02:39;5.00;;;1.30;;
60851;SDS011;48553;50.766;2.900;2023-08-06T14:05:40;3.80;;;1.58;;
60851;SDS011;48553;50.766;2.900;2023-08-06T14:08:40;4.35;;;1.38;;
60851;SDS011;48553;50.766;2.900;2023-08-06T14:11:40;5.43;;;1.50;;
60851;SDS011;48553;50.766;2.900;2023-08-06T14:14:41;5.90;;;1.60;;
60851;SDS011;48553;50.766;2.900;2023-08-06T14:17:41;7.72;;;1.50;;
60851;SDS011;48553;50.766;2.900;2023-08-06T14:20:42;4.13;;;1.25;;
60851;SDS011;48553;50.766;2.900;2023-08-06T14:23:43;5.82;;;1.30;;
60851;SDS011;48553;50.766;2.900;2023-08-06T14:26:43;3.55;;;1.08;;
60851;SDS011;48553;50.766;2.900;2023-08-06T14:29:44;3.95;;;1.13;;
60851;SDS011;48553;50.766;2.900;2023-08-06T14:32:45;4.80;;;1.15;;
60851;SDS011;48553;50.766;2.900;2023-08-06T14:35:45;3.03;;;1.08;;
60851;SDS011;48553;50.766;2.900;2023-08-06T14:38:45;4.63;;;1.40;;
60851;SDS011;48553;50.766;2.900;2023-08-06T14:41:46;4.57;;;1.27;;
60851;SDS011;48553;50.766;2.900;2023-08-06T14:44:47;3.30;;;1.10;;
60851;SDS011;48553;50.766;2.900;2023-08-06T14:47:47;5.82;;;1.30;;
60851;SDS011;48553;50.766;2.900;2023-08-06T14:50:47;7.93;;;3.17;;
60851;SDS011;48553;50.766;2.900;2023-08-06T14:53:48;6.68;;;1.90;;
60851;SDS011;48553;50.766;2.900;2023-08-06T14:56:48;5.93;;;1.60;;
60851;SDS011;48553;50.766;2.900;2023-08-06T14:59:49;7.15;;;2.20;;
60851;SDS011;48553;50.766;2.900;2023-08-06T15:02:49;7.78;;;2.00;;
60851;SDS011;48553;50.766;2.900;2023-08-06T15:05:50;4.95;;;1.98;;
60851;SDS011;48553;50.766;2.900;2023-08-06T15:08:50;7.10;;;1.67;;
60851;SDS011;48553;50.766;2.900;2023-08-06T15:11:51;7.22;;;1.98;;
60851;SDS011;48553;50.766;2.900;2023-08-06T15:14:51;4.22;;;1.45;;
60851;SDS011;48553;50.766;2.900;2023-08-06T15:17:52;3.90;;;1.63;;
60851;SDS011;48553;50.766;2.900;2023-08-06T15:20:52;7.47;;;2.53;;
60851;SDS011;48553;50.766;2.900;2023-08-06T15:23:53;4.68;;;1.60;;
60851;SDS011;48553;50.766;2.900;2023-08-06T15:26:54;8.02;;;1.77;;
60851;SDS011;48553;50.766;2.900;2023-08-06T15:29:54;4.43;;;1.45;;
60851;SDS011;48553;50.766;2.900;2023-08-06T15:32:55;5.70;;;1.60;;
60851;SDS011;48553;50.766;2.900;2023-08-06T15:35:55;6.00;;;1.63;;
60851;SDS011;48553;50.766;2.900;2023-08-06T15:38:57;3.85;;;1.67;;
60851;SDS011;48553;50.766;2.900;2023-08-06T15:41:57;5.43;;;2.15;;
60851;SDS011;48553;50.766;2.900;2023-08-06T15:44:58;4.22;;;1.10;;
60851;SDS011;48553;50.766;2.900;2023-08-06T15:47:59;4.60;;;1.42;;
60851;SDS011;48553;50.766;2.900;2023-08-06T15:50:59;5.15;;;1.70;;
60851;SDS011;48553;50.766;2.900;2023-08-06T15:54:00;3.70;;;2.05;;
60851;SDS011;48553;50.766;2.900;2023-08-06T15:57:00;4.85;;;1.50;;
60851;SDS011;48553;50.766;2.900;2023-08-06T16:00:02;3.65;;;1.00;;
60851;SDS011;48553;50.766;2.900;2023-08-06T16:03:03;3.92;;;1.17;;
60851;SDS011;48553;50.766;2.900;2023-08-06T16:06:03;2.83;;;0.93;;
60851;SDS011;48553;50.766;2.900;2023-08-06T16:09:04;3.00;;;0.80;;
60851;SDS011;48553;50.766;2.900;2023-08-06T16:12:05;3.95;;;1.25;;
60851;SDS011;48553;50.766;2.900;2023-08-06T16:15:07;3.40;;;1.00;;
60851;SDS011;48553;50.766;2.900;2023-08-06T16:18:07;2.20;;;0.85;;
60851;SDS011;48553;50.766;2.900;2023-08-06T16:21:08;2.20;;;0.90;;
60851;SDS011;48553;50.766;2.900;2023-08-06T16:24:08;3.60;;;0.90;;
60851;SDS011;48553;50.766;2.900;2023-08-06T16:27:09;2.85;;;1.00;;
60851;SDS011;48553;50.766;2.900;2023-08-06T16:30:09;2.70;;;1.02;;
60851;SDS011;48553;50.766;2.900;2023-08-06T16:33:10;3.40;;;1.10;;
60851;SDS011;48553;50.766;2.900;2023-08-06T16:36:11;3.33;;;1.50;;
60851;SDS011;48553;50.766;2.900;2023-08-06T16:39:11;4.28;;;1.40;;
60851;SDS011;48553;50.766;2.900;2023-08-06T16:42:12;4.80;;;1.30;;
60851;SDS011;48553;50.766;2.900;2023-08-06T16:45:12;5.30;;;1.40;;
60851;SDS011;48553;50.766;2.900;2023-08-06T16:48:13;6.68;;;3.67;;
60851;SDS011;48553;50.766;2.900;2023-08-06T16:51:13;6.07;;;1.30;;
60851;SDS011;48553;50.766;2.900;2023-08-06T16:54:16;4.50;;;1.50;;
60851;SDS011;48553;50.766;2.900;2023-08-06T16:57:16;5.95;;;1.30;;
60851;SDS011;48553;50.766;2.900;2023-08-06T17:00:17;4.95;;;1.10;;
60851;SDS011;48553;50.766;2.900;2023-08-06T17:03:17;5.75;;;1.48;;
60851;SDS011;48553;50.766;2.900;2023-08-06T17:06:18;4.38;;;1.23;;
60851;SDS011;48553;50.766;2.900;2023-08-06T17:09:18;4.00;;;1.20;;
60851;SDS011;48553;50.766;2.900;2023-08-06T17:12:18;3.47;;;1.08;;
60851;SDS011;48553;50.766;2.900;2023-08-06T17:15:20;4.55;;;1.10;;
60851;SDS011;48553;50.766;2.900;2023-08-06T17:18:21;4.15;;;1.00;;
60851;SDS011;48553;50.766;2.900;2023-08-06T17:21:22;4.10;;;1.02;;
60851;SDS011;48553;50.766;2.900;2023-08-06T17:24:22;3.90;;;1.02;;
60851;SDS011;48553;50.766;2.900;2023-08-06T17:27:23;4.80;;;0.98;;
60851;SDS011;48553;50.766;2.900;2023-08-06T17:30:24;4.00;;;1.02;;
60851;SDS011;48553;50.766;2.900;2023-08-06T17:33:24;3.75;;;1.00;;
60851;SDS011;48553;50.766;2.900;2023-08-06T17:36:25;3.42;;;1.00;;
60851;SDS011;48553;50.766;2.900;2023-08-06T17:39:25;3.15;;;0.98;;
60851;SDS011;48553;50.766;2.900;2023-08-06T17:42:26;6.38;;;0.90;;
60851;SDS011;48553;50.766;2.900;2023-08-06T17:45:26;4.50;;;1.08;;
60851;SDS011;48553;50.766;2.900;2023-08-06T17:48:27;4.70;;;1.00;;
60851;SDS011;48553;50.766;2.900;2023-08-06T17:51:28;5.32;;;0.98;;
60851;SDS011;48553;50.766;2.900;2023-08-06T17:54:29;2.92;;;1.10;;
60851;SDS011;48553;50.766;2.900;2023-08-06T17:57:29;5.15;;;1.08;;
60851;SDS011;48553;50.766;2.900;2023-08-06T18:00:30;5.95;;;1.02;;
60851;SDS011;48553;50.766;2.900;2023-08-06T18:03:31;4.07;;;0.90;;
60851;SDS011;48553;50.766;2.900;2023-08-06T18:06:31;3.22;;;0.80;;
60851;SDS011;48553;50.766;2.900;2023-08-06T18:09:32;5.40;;;1.17;;
60851;SDS011;48553;50.766;2.900;2023-08-06T18:12:33;2.10;;;0.88;;
60851;SDS011;48553;50.766;2.900;2023-08-06T18:15:36;8.80;;;1.20;;
60851;SDS011;48553;50.766;2.900;2023-08-06T18:18:36;2.80;;;0.98;;